sensor_id;sensor_type;location;lat;lon;timestamp;P1;durP1;ratioP1;P2;durP2;ratioP2
44816;SDS011;30529;53.570;9.964;2023-03-23T00:01:25;8.53;;;5.57;;
44816;SDS011;30529;53.570;9.964;2023-03-23T00:03:55;7.83;;;5.30;;
44816;SDS011;30529;53.570;9.964;2023-03-23T00:06:23;7.13;;;4.93;;
44816;SDS011;30529;53.570;9.964;2023-03-23T00:08:51;9.03;;;5.80;;
44816;SDS011;30529;53.570;9.964;2023-03-23T00:11:23;8.03;;;5.63;;
44816;SDS011;30529;53.570;9.964;2023-03-23T00:13:52;8.67;;;6.40;;
44816;SDS011;30529;53.570;9.964;2023-03-23T00:16:22;10.20;;;6.00;;
44816;SDS011;30529;53.570;9.964;2023-03-23T00:18:58;10.43;;;6.10;;
44816;SDS011;30529;53.570;9.964;2023-03-23T00:21:27;9.93;;;6.77;;
44816;SDS011;30529;53.570;9.964;2023-03-23T00:24:00;9.07;;;7.20;;
44816;SDS011;30529;53.570;9.964;2023-03-23T00:26:34;9.93;;;7.43;;
44816;SDS011;30529;53.570;9.964;2023-03-23T00:29:04;10.53;;;6.93;;
44816;SDS011;30529;53.570;9.964;2023-03-23T00:31:32;8.23;;;6.70;;
44816;SDS011;30529;53.570;9.964;2023-03-23T00:34:00;10.20;;;6.77;;
44816;SDS011;30529;53.570;9.964;2023-03-23T00:36:33;8.50;;;7.40;;
44816;SDS011;30529;53.570;9.964;2023-03-23T00:39:03;9.13;;;6.83;;
44816;SDS011;30529;53.570;9.964;2023-03-23T00:41:30;9.33;;;7.30;;
44816;SDS011;30529;53.570;9.964;2023-03-23T00:43:58;8.17;;;6.90;;
44816;SDS011;30529;53.570;9.964;2023-03-23T00:46:27;7.80;;;6.83;;
44816;SDS011;30529;53.570;9.964;2023-03-23T00:48:54;9.57;;;7.27;;
44816;SDS011;30529;53.570;9.964;2023-03-23T00:51:22;9.07;;;7.07;;
44816;SDS011;30529;53.570;9.964;2023-03-23T00:53:49;8.47;;;6.90;;
44816;SDS011;30529;53.570;9.964;2023-03-23T00:56:16;9.30;;;6.67;;
44816;SDS011;30529;53.570;9.964;2023-03-23T00:58:42;10.00;;;7.00;;
44816;SDS011;30529;53.570;9.964;2023-03-23T01:01:09;8.77;;;6.77;;
44816;SDS011;30529;53.570;9.964;2023-03-23T01:03:35;9.20;;;6.43;;
44816;SDS011;30529;53.570;9.964;2023-03-23T01:06:06;7.60;;;6.57;;
44816;SDS011;30529;53.570;9.964;2023-03-23T01:08:34;7.43;;;6.67;;
44816;SDS011;30529;53.570;9.964;2023-03-23T01:11:05;7.70;;;6.37;;
44816;SDS011;30529;53.570;9.964;2023-03-23T01:13:32;9.17;;;6.43;;
44816;SDS011;30529;53.570;9.964;2023-03-23T01:15:58;9.77;;;6.77;;
44816;SDS011;30529;53.570;9.964;2023-03-23T01:18:24;8.10;;;7.03;;
44816;SDS011;30529;53.570;9.964;2023-03-23T01:20:50;9.00;;;6.60;;
44816;SDS011;30529;53.570;9.964;2023-03-23T01:23:16;7.63;;;6.67;;
44816;SDS011;30529;53.570;9.964;2023-03-23T01:25:42;7.23;;;6.07;;
44816;SDS011;30529;53.570;9.964;2023-03-23T01:28:08;8.30;;;6.67;;
44816;SDS011;30529;53.570;9.964;2023-03-23T01:30:36;8.53;;;7.20;;
44816;SDS011;30529;53.570;9.964;2023-03-23T01:33:02;7.73;;;6.67;;
44816;SDS011;30529;53.570;9.964;2023-03-23T01:35:28;9.43;;;7.13;;
44816;SDS011;30529;53.570;9.964;2023-03-23T01:37:54;9.50;;;6.97;;
44816;SDS011;30529;53.570;9.964;2023-03-23T01:40:20;8.13;;;6.60;;
44816;SDS011;30529;53.570;9.964;2023-03-23T01:42:46;8.70;;;7.57;;
44816;SDS011;30529;53.570;9.964;2023-03-23T01:45:31;10.37;;;6.90;;
44816;SDS011;30529;53.570;9.964;2023-03-23T01:50:34;11.10;;;7.30;;
44816;SDS011;30529;53.570;9.964;2023-03-23T01:53:05;10.63;;;7.37;;
44816;SDS011;30529;53.570;9.964;2023-03-23T01:55:34;10.47;;;7.40;;
44816;SDS011;30529;53.570;9.964;2023-03-23T01:58:03;9.70;;;7.87;;
44816;SDS011;30529;53.570;9.964;2023-03-23T02:00:31;11.17;;;7.77;;
44816;SDS011;30529;53.570;9.964;2023-03-23T02:02:57;8.23;;;6.77;;
44816;SDS011;30529;53.570;9.964;2023-03-23T02:05:24;10.17;;;7.10;;
44816;SDS011;30529;53.570;9.964;2023-03-23T02:07:56;10.20;;;6.97;;
44816;SDS011;30529;53.570;9.964;2023-03-23T02:10:29;10.43;;;7.70;;
44816;SDS011;30529;53.570;9.964;2023-03-23T02:12:57;8.30;;;6.40;;
44816;SDS011;30529;53.570;9.964;2023-03-23T02:15:28;9.13;;;6.83;;
44816;SDS011;30529;53.570;9.964;2023-03-23T02:35:28;8.40;;;6.03;;
44816;SDS011;30529;53.570;9.964;2023-03-23T02:38:02;6.80;;;6.10;;
44816;SDS011;30529;53.570;9.964;2023-03-23T02:40:36;8.17;;;5.97;;
44816;SDS011;30529;53.570;9.964;2023-03-23T02:43:07;8.60;;;6.27;;
44816;SDS011;30529;53.570;9.964;2023-03-23T02:45:36;7.23;;;5.40;;
44816;SDS011;30529;53.570;9.964;2023-03-23T02:48:04;9.57;;;6.03;;
44816;SDS011;30529;53.570;9.964;2023-03-23T02:50:33;9.03;;;5.90;;
44816;SDS011;30529;53.570;9.964;2023-03-23T02:53:00;7.00;;;5.87;;
44816;SDS011;30529;53.570;9.964;2023-03-23T02:55:28;8.13;;;5.67;;
44816;SDS011;30529;53.570;9.964;2023-03-23T02:57:55;6.40;;;5.50;;
44816;SDS011;30529;53.570;9.964;2023-03-23T03:00:21;8.23;;;5.60;;
44816;SDS011;30529;53.570;9.964;2023-03-23T03:02:48;7.40;;;5.87;;
44816;SDS011;30529;53.570;9.964;2023-03-23T03:05:21;8.77;;;5.37;;
44816;SDS011;30529;53.570;9.964;2023-03-23T03:08:15;8.40;;;5.60;;
44816;SDS011;30529;53.570;9.964;2023-03-23T03:10:53;6.30;;;5.40;;
44816;SDS011;30529;53.570;9.964;2023-03-23T03:13:32;9.60;;;6.10;;
44816;SDS011;30529;53.570;9.964;2023-03-23T03:16:24;7.93;;;5.97;;
44816;SDS011;30529;53.570;9.964;2023-03-23T03:19:05;8.87;;;6.30;;
44816;SDS011;30529;53.570;9.964;2023-03-23T03:21:52;9.60;;;6.30;;
44816;SDS011;30529;53.570;9.964;2023-03-23T03:24:20;7.80;;;6.07;;
44816;SDS011;30529;53.570;9.964;2023-03-23T03:26:50;8.63;;;6.83;;
44816;SDS011;30529;53.570;9.964;2023-03-23T03:29:23;8.10;;;6.67;;
44816;SDS011;30529;53.570;9.964;2023-03-23T03:31:55;8.40;;;6.20;;
44816;SDS011;30529;53.570;9.964;2023-03-23T03:34:23;8.10;;;6.30;;
44816;SDS011;30529;53.570;9.964;2023-03-23T03:36:51;8.03;;;6.27;;
44816;SDS011;30529;53.570;9.964;2023-03-23T03:39:20;8.37;;;5.83;;
44816;SDS011;30529;53.570;9.964;2023-03-23T03:41:47;8.37;;;6.27;;
44816;SDS011;30529;53.570;9.964;2023-03-23T03:44:13;9.33;;;6.40;;
44816;SDS011;30529;53.570;9.964;2023-03-23T03:46:40;7.10;;;5.60;;
44816;SDS011;30529;53.570;9.964;2023-03-23T03:49:08;11.17;;;6.30;;
44816;SDS011;30529;53.570;9.964;2023-03-23T03:51:35;7.93;;;6.27;;
44816;SDS011;30529;53.570;9.964;2023-03-23T03:54:02;11.57;;;7.27;;
44816;SDS011;30529;53.570;9.964;2023-03-23T03:56:28;10.77;;;6.73;;
44816;SDS011;30529;53.570;9.964;2023-03-23T03:58:54;7.60;;;6.67;;
44816;SDS011;30529;53.570;9.964;2023-03-23T04:01:21;9.40;;;6.53;;
44816;SDS011;30529;53.570;9.964;2023-03-23T04:03:50;10.33;;;6.50;;
44816;SDS011;30529;53.570;9.964;2023-03-23T04:06:17;8.73;;;6.87;;
44816;SDS011;30529;53.570;9.964;2023-03-23T04:08:44;8.87;;;6.60;;
44816;SDS011;30529;53.570;9.964;2023-03-23T04:11:12;9.70;;;6.30;;
44816;SDS011;30529;53.570;9.964;2023-03-23T04:13:40;7.97;;;6.43;;
44816;SDS011;30529;53.570;9.964;2023-03-23T04:16:06;8.47;;;6.77;;
44816;SDS011;30529;53.570;9.964;2023-03-23T04:18:33;7.63;;;6.17;;
44816;SDS011;30529;53.570;9.964;2023-03-23T04:21:00;10.20;;;6.10;;
44816;SDS011;30529;53.570;9.964;2023-03-23T04:23:28;9.87;;;6.30;;
44816;SDS011;30529;53.570;9.964;2023-03-23T04:25:56;8.07;;;6.07;;
44816;SDS011;30529;53.570;9.964;2023-03-23T04:28:23;7.17;;;6.23;;
44816;SDS011;30529;53.570;9.964;2023-03-23T04:30:51;9.20;;;6.30;;
44816;SDS011;30529;53.570;9.964;2023-03-23T04:33:23;9.30;;;6.17;;
44816;SDS011;30529;53.570;9.964;2023-03-23T04:35:52;10.20;;;6.90;;
44816;SDS011;30529;53.570;9.964;2023-03-23T04:38:19;8.13;;;6.17;;
44816;SDS011;30529;53.570;9.964;2023-03-23T04:40:47;9.97;;;7.13;;
44816;SDS011;30529;53.570;9.964;2023-03-23T04:43:20;10.57;;;6.43;;
44816;SDS011;30529;53.570;9.964;2023-03-23T04:45:54;9.07;;;6.80;;
44816;SDS011;30529;53.570;9.964;2023-03-23T04:48:24;8.10;;;6.13;;
44816;SDS011;30529;53.570;9.964;2023-03-23T04:50:51;6.47;;;5.77;;
44816;SDS011;30529;53.570;9.964;2023-03-23T04:53:18;9.47;;;6.57;;
44816;SDS011;30529;53.570;9.964;2023-03-23T04:55:44;10.07;;;6.47;;
44816;SDS011;30529;53.570;9.964;2023-03-23T04:58:13;10.30;;;6.10;;
44816;SDS011;30529;53.570;9.964;2023-03-23T05:00:39;8.80;;;6.20;;
44816;SDS011;30529;53.570;9.964;2023-03-23T05:03:09;7.97;;;6.63;;
44816;SDS011;30529;53.570;9.964;2023-03-23T05:05:36;7.80;;;6.17;;
44816;SDS011;30529;53.570;9.964;2023-03-23T05:08:02;8.67;;;6.10;;
44816;SDS011;30529;53.570;9.964;2023-03-23T05:10:29;7.70;;;6.70;;
44816;SDS011;30529;53.570;9.964;2023-03-23T05:12:55;7.87;;;6.33;;
44816;SDS011;30529;53.570;9.964;2023-03-23T05:15:21;10.67;;;6.50;;
44816;SDS011;30529;53.570;9.964;2023-03-23T05:17:47;8.70;;;6.30;;
44816;SDS011;30529;53.570;9.964;2023-03-23T05:20:14;11.50;;;6.13;;
44816;SDS011;30529;53.570;9.964;2023-03-23T05:22:46;7.60;;;6.13;;
44816;SDS011;30529;53.570;9.964;2023-03-23T05:25:15;10.70;;;6.27;;
44816;SDS011;30529;53.570;9.964;2023-03-23T05:27:46;8.60;;;6.00;;
44816;SDS011;30529;53.570;9.964;2023-03-23T05:30:18;9.50;;;6.30;;
44816;SDS011;30529;53.570;9.964;2023-03-23T05:32:45;9.17;;;6.30;;
44816;SDS011;30529;53.570;9.964;2023-03-23T05:35:16;6.50;;;5.60;;
44816;SDS011;30529;53.570;9.964;2023-03-23T05:37:42;6.33;;;5.73;;
44816;SDS011;30529;53.570;9.964;2023-03-23T05:40:09;7.00;;;6.00;;
44816;SDS011;30529;53.570;9.964;2023-03-23T05:42:37;10.33;;;6.30;;
44816;SDS011;30529;53.570;9.964;2023-03-23T05:45:07;9.30;;;5.77;;
44816;SDS011;30529;53.570;9.964;2023-03-23T05:47:34;7.70;;;5.73;;
44816;SDS011;30529;53.570;9.964;2023-03-23T05:50:01;6.70;;;5.10;;
44816;SDS011;30529;53.570;9.964;2023-03-23T05:52:27;8.00;;;5.27;;
44816;SDS011;30529;53.570;9.964;2023-03-23T05:54:53;8.83;;;5.50;;
44816;SDS011;30529;53.570;9.964;2023-03-23T05:57:19;7.53;;;4.70;;
44816;SDS011;30529;53.570;9.964;2023-03-23T05:59:49;6.30;;;5.40;;
44816;SDS011;30529;53.570;9.964;2023-03-23T06:02:15;9.37;;;5.23;;
44816;SDS011;30529;53.570;9.964;2023-03-23T06:04:41;7.00;;;5.00;;
44816;SDS011;30529;53.570;9.964;2023-03-23T06:07:08;6.20;;;4.90;;
44816;SDS011;30529;53.570;9.964;2023-03-23T06:09:38;6.83;;;4.67;;
44816;SDS011;30529;53.570;9.964;2023-03-23T06:12:04;6.07;;;4.40;;
44816;SDS011;30529;53.570;9.964;2023-03-23T06:14:30;8.43;;;4.70;;
44816;SDS011;30529;53.570;9.964;2023-03-23T06:16:56;7.27;;;4.60;;
44816;SDS011;30529;53.570;9.964;2023-03-23T06:19:22;7.83;;;4.43;;
44816;SDS011;30529;53.570;9.964;2023-03-23T06:21:49;7.63;;;4.60;;
44816;SDS011;30529;53.570;9.964;2023-03-23T06:24:15;5.77;;;3.93;;
44816;SDS011;30529;53.570;9.964;2023-03-23T06:26:41;5.33;;;3.80;;
44816;SDS011;30529;53.570;9.964;2023-03-23T06:29:07;7.10;;;3.70;;
44816;SDS011;30529;53.570;9.964;2023-03-23T06:31:43;7.67;;;4.63;;
44816;SDS011;30529;53.570;9.964;2023-03-23T06:34:11;6.47;;;4.07;;
44816;SDS011;30529;53.570;9.964;2023-03-23T06:36:38;11.37;;;4.40;;
44816;SDS011;30529;53.570;9.964;2023-03-23T06:39:04;5.73;;;3.50;;
44816;SDS011;30529;53.570;9.964;2023-03-23T06:41:34;6.53;;;3.77;;
44816;SDS011;30529;53.570;9.964;2023-03-23T06:44:00;6.53;;;3.70;;
44816;SDS011;30529;53.570;9.964;2023-03-23T06:46:27;5.53;;;3.97;;
44816;SDS011;30529;53.570;9.964;2023-03-23T06:48:53;6.67;;;3.67;;
44816;SDS011;30529;53.570;9.964;2023-03-23T06:51:20;6.57;;;4.43;;
44816;SDS011;30529;53.570;9.964;2023-03-23T06:53:46;4.20;;;3.50;;
44816;SDS011;30529;53.570;9.964;2023-03-23T06:56:13;6.67;;;4.00;;
44816;SDS011;30529;53.570;9.964;2023-03-23T06:58:39;5.93;;;3.53;;
44816;SDS011;30529;53.570;9.964;2023-03-23T07:01:07;5.30;;;3.40;;
44816;SDS011;30529;53.570;9.964;2023-03-23T07:03:34;5.13;;;3.40;;
44816;SDS011;30529;53.570;9.964;2023-03-23T07:06:02;3.97;;;3.10;;
44816;SDS011;30529;53.570;9.964;2023-03-23T07:08:29;4.93;;;3.03;;
44816;SDS011;30529;53.570;9.964;2023-03-23T07:10:56;7.20;;;3.60;;
44816;SDS011;30529;53.570;9.964;2023-03-23T07:13:22;4.83;;;3.00;;
44816;SDS011;30529;53.570;9.964;2023-03-23T07:15:49;6.07;;;3.17;;
44816;SDS011;30529;53.570;9.964;2023-03-23T07:18:16;3.73;;;2.93;;
44816;SDS011;30529;53.570;9.964;2023-03-23T07:20:42;4.47;;;2.80;;
44816;SDS011;30529;53.570;9.964;2023-03-23T07:23:08;4.93;;;3.03;;
44816;SDS011;30529;53.570;9.964;2023-03-23T07:25:34;4.53;;;3.00;;
44816;SDS011;30529;53.570;9.964;2023-03-23T07:28:01;3.83;;;2.90;;
44816;SDS011;30529;53.570;9.964;2023-03-23T07:30:29;8.00;;;3.13;;
44816;SDS011;30529;53.570;9.964;2023-03-23T07:32:56;5.90;;;3.10;;
44816;SDS011;30529;53.570;9.964;2023-03-23T07:35:23;7.27;;;3.00;;
44816;SDS011;30529;53.570;9.964;2023-03-23T07:37:49;6.13;;;3.00;;
44816;SDS011;30529;53.570;9.964;2023-03-23T07:40:17;5.90;;;3.33;;
44816;SDS011;30529;53.570;9.964;2023-03-23T07:42:44;5.27;;;3.03;;
44816;SDS011;30529;53.570;9.964;2023-03-23T07:45:14;5.30;;;2.70;;
44816;SDS011;30529;53.570;9.964;2023-03-23T07:47:41;4.83;;;2.83;;
44816;SDS011;30529;53.570;9.964;2023-03-23T07:50:07;3.50;;;2.53;;
44816;SDS011;30529;53.570;9.964;2023-03-23T07:52:35;4.87;;;2.70;;
44816;SDS011;30529;53.570;9.964;2023-03-23T07:55:02;4.27;;;2.80;;
44816;SDS011;30529;53.570;9.964;2023-03-23T07:57:29;4.60;;;2.77;;
44816;SDS011;30529;53.570;9.964;2023-03-23T07:59:56;6.23;;;3.00;;
44816;SDS011;30529;53.570;9.964;2023-03-23T08:02:23;3.73;;;2.90;;
44816;SDS011;30529;53.570;9.964;2023-03-23T08:04:49;4.67;;;3.67;;
44816;SDS011;30529;53.570;9.964;2023-03-23T08:07:16;6.57;;;3.07;;
44816;SDS011;30529;53.570;9.964;2023-03-23T08:09:44;4.80;;;3.67;;
44816;SDS011;30529;53.570;9.964;2023-03-23T08:12:12;7.37;;;3.80;;
44816;SDS011;30529;53.570;9.964;2023-03-23T08:14:38;5.27;;;3.90;;
44816;SDS011;30529;53.570;9.964;2023-03-23T08:17:05;7.07;;;3.60;;
44816;SDS011;30529;53.570;9.964;2023-03-23T08:19:31;6.10;;;3.43;;
44816;SDS011;30529;53.570;9.964;2023-03-23T08:22:03;5.47;;;3.53;;
44816;SDS011;30529;53.570;9.964;2023-03-23T08:24:30;7.10;;;3.23;;
44816;SDS011;30529;53.570;9.964;2023-03-23T08:26:58;4.77;;;3.80;;
44816;SDS011;30529;53.570;9.964;2023-03-23T08:29:25;5.50;;;3.47;;
44816;SDS011;30529;53.570;9.964;2023-03-23T08:31:51;4.53;;;2.43;;
44816;SDS011;30529;53.570;9.964;2023-03-23T08:34:19;4.50;;;2.40;;
44816;SDS011;30529;53.570;9.964;2023-03-23T08:36:45;4.80;;;3.17;;
44816;SDS011;30529;53.570;9.964;2023-03-23T08:39:12;3.37;;;2.30;;
44816;SDS011;30529;53.570;9.964;2023-03-23T08:41:43;5.87;;;2.33;;
44816;SDS011;30529;53.570;9.964;2023-03-23T08:44:10;3.70;;;1.90;;
44816;SDS011;30529;53.570;9.964;2023-03-23T08:46:36;4.57;;;1.87;;
44816;SDS011;30529;53.570;9.964;2023-03-23T08:49:02;3.43;;;1.47;;
44816;SDS011;30529;53.570;9.964;2023-03-23T08:51:28;4.90;;;1.40;;
44816;SDS011;30529;53.570;9.964;2023-03-23T08:53:54;4.67;;;1.40;;
44816;SDS011;30529;53.570;9.964;2023-03-23T08:56:19;6.87;;;2.90;;
44816;SDS011;30529;53.570;9.964;2023-03-23T08:58:46;5.47;;;1.97;;
44816;SDS011;30529;53.570;9.964;2023-03-23T09:01:13;6.17;;;2.20;;
44816;SDS011;30529;53.570;9.964;2023-03-23T09:03:39;7.50;;;2.00;;
44816;SDS011;30529;53.570;9.964;2023-03-23T09:06:06;4.07;;;2.00;;
44816;SDS011;30529;53.570;9.964;2023-03-23T09:08:34;4.70;;;2.10;;
44816;SDS011;30529;53.570;9.964;2023-03-23T09:11:04;5.60;;;1.80;;
44816;SDS011;30529;53.570;9.964;2023-03-23T09:13:33;3.07;;;1.93;;
44816;SDS011;30529;53.570;9.964;2023-03-23T09:16:04;5.37;;;2.30;;
44816;SDS011;30529;53.570;9.964;2023-03-23T09:18:31;6.07;;;2.10;;
44816;SDS011;30529;53.570;9.964;2023-03-23T09:20:58;6.10;;;2.17;;
44816;SDS011;30529;53.570;9.964;2023-03-23T09:23:25;6.50;;;1.83;;
44816;SDS011;30529;53.570;9.964;2023-03-23T09:25:52;7.30;;;2.30;;
44816;SDS011;30529;53.570;9.964;2023-03-23T09:28:18;7.57;;;2.30;;
44816;SDS011;30529;53.570;9.964;2023-03-23T09:30:44;7.10;;;1.80;;
44816;SDS011;30529;53.570;9.964;2023-03-23T09:33:10;8.33;;;2.30;;
44816;SDS011;30529;53.570;9.964;2023-03-23T09:35:37;10.03;;;2.47;;
44816;SDS011;30529;53.570;9.964;2023-03-23T09:38:04;4.93;;;1.80;;
44816;SDS011;30529;53.570;9.964;2023-03-23T09:40:39;8.67;;;2.80;;
44816;SDS011;30529;53.570;9.964;2023-03-23T09:43:27;5.53;;;2.23;;
44816;SDS011;30529;53.570;9.964;2023-03-23T09:48:56;13.53;;;2.70;;
44816;SDS011;30529;53.570;9.964;2023-03-23T09:51:41;9.83;;;2.27;;
44816;SDS011;30529;53.570;9.964;2023-03-23T09:54:36;10.00;;;2.20;;
44816;SDS011;30529;53.570;9.964;2023-03-23T10:00:13;11.53;;;2.53;;
44816;SDS011;30529;53.570;9.964;2023-03-23T10:05:32;9.17;;;2.50;;
44816;SDS011;30529;53.570;9.964;2023-03-23T10:08:05;8.00;;;2.17;;
44816;SDS011;30529;53.570;9.964;2023-03-23T10:13:14;9.67;;;2.30;;
44816;SDS011;30529;53.570;9.964;2023-03-23T10:15:49;11.03;;;2.37;;
44816;SDS011;30529;53.570;9.964;2023-03-23T10:18:17;5.57;;;1.83;;
44816;SDS011;30529;53.570;9.964;2023-03-23T10:21:06;7.87;;;2.27;;
44816;SDS011;30529;53.570;9.964;2023-03-23T10:26:19;7.27;;;1.93;;
44816;SDS011;30529;53.570;9.964;2023-03-23T10:29:01;8.33;;;1.80;;
44816;SDS011;30529;53.570;9.964;2023-03-23T10:31:40;9.57;;;2.40;;
44816;SDS011;30529;53.570;9.964;2023-03-23T10:34:11;8.57;;;2.10;;
44816;SDS011;30529;53.570;9.964;2023-03-23T10:37:02;9.27;;;2.50;;
44816;SDS011;30529;53.570;9.964;2023-03-23T10:39:38;7.83;;;2.00;;
44816;SDS011;30529;53.570;9.964;2023-03-23T10:42:11;12.33;;;2.80;;
44816;SDS011;30529;53.570;9.964;2023-03-23T10:44:37;7.87;;;2.20;;
44816;SDS011;30529;53.570;9.964;2023-03-23T10:47:04;7.50;;;1.73;;
44816;SDS011;30529;53.570;9.964;2023-03-23T10:49:40;7.53;;;1.93;;
44816;SDS011;30529;53.570;9.964;2023-03-23T10:55:05;5.50;;;2.23;;
44816;SDS011;30529;53.570;9.964;2023-03-23T10:57:33;5.90;;;2.40;;
44816;SDS011;30529;53.570;9.964;2023-03-23T11:00:03;7.07;;;2.10;;
44816;SDS011;30529;53.570;9.964;2023-03-23T11:02:47;11.13;;;2.37;;
44816;SDS011;30529;53.570;9.964;2023-03-23T11:05:31;14.83;;;2.70;;
44816;SDS011;30529;53.570;9.964;2023-03-23T11:08:03;11.00;;;2.20;;
44816;SDS011;30529;53.570;9.964;2023-03-23T11:10:41;8.67;;;2.10;;
44816;SDS011;30529;53.570;9.964;2023-03-23T11:13:15;9.03;;;2.23;;
44816;SDS011;30529;53.570;9.964;2023-03-23T11:15:43;9.13;;;2.60;;
44816;SDS011;30529;53.570;9.964;2023-03-23T11:18:25;11.53;;;2.93;;
44816;SDS011;30529;53.570;9.964;2023-03-23T11:20:56;8.77;;;2.90;;
44816;SDS011;30529;53.570;9.964;2023-03-23T11:23:24;12.30;;;2.77;;
44816;SDS011;30529;53.570;9.964;2023-03-23T11:26:12;8.40;;;2.60;;
44816;SDS011;30529;53.570;9.964;2023-03-23T11:28:44;12.90;;;2.13;;
44816;SDS011;30529;53.570;9.964;2023-03-23T11:31:15;7.43;;;2.33;;
44816;SDS011;30529;53.570;9.964;2023-03-23T11:33:53;12.30;;;3.40;;
44816;SDS011;30529;53.570;9.964;2023-03-23T11:36:29;9.70;;;2.67;;
44816;SDS011;30529;53.570;9.964;2023-03-23T11:38:59;9.87;;;2.63;;
44816;SDS011;30529;53.570;9.964;2023-03-23T11:41:28;13.03;;;2.90;;
44816;SDS011;30529;53.570;9.964;2023-03-23T11:43:58;10.67;;;2.57;;
44816;SDS011;30529;53.570;9.964;2023-03-23T11:46:34;8.13;;;2.57;;
44816;SDS011;30529;53.570;9.964;2023-03-23T11:49:15;10.27;;;2.40;;
44816;SDS011;30529;53.570;9.964;2023-03-23T11:51:53;10.90;;;2.53;;
44816;SDS011;30529;53.570;9.964;2023-03-23T11:54:28;9.87;;;2.70;;
44816;SDS011;30529;53.570;9.964;2023-03-23T11:56:58;7.90;;;2.30;;
44816;SDS011;30529;53.570;9.964;2023-03-23T11:59:29;13.57;;;2.97;;
44816;SDS011;30529;53.570;9.964;2023-03-23T12:16:40;10.27;;;2.20;;
44816;SDS011;30529;53.570;9.964;2023-03-23T12:19:23;9.57;;;3.30;;
44816;SDS011;30529;53.570;9.964;2023-03-23T12:25:08;8.97;;;2.50;;
44816;SDS011;30529;53.570;9.964;2023-03-23T12:27:53;9.17;;;3.03;;
44816;SDS011;30529;53.570;9.964;2023-03-23T12:31:17;7.50;;;2.63;;
44816;SDS011;30529;53.570;9.964;2023-03-23T12:57:26;9.17;;;3.20;;
44816;SDS011;30529;53.570;9.964;2023-03-23T13:07:30;8.70;;;2.97;;
44816;SDS011;30529;53.570;9.964;2023-03-23T13:10:03;6.40;;;2.50;;
44816;SDS011;30529;53.570;9.964;2023-03-23T13:12:34;11.57;;;3.00;;
44816;SDS011;30529;53.570;9.964;2023-03-23T13:15:17;15.77;;;4.00;;
44816;SDS011;30529;53.570;9.964;2023-03-23T13:18:10;8.27;;;3.00;;
44816;SDS011;30529;53.570;9.964;2023-03-23T13:20:54;8.40;;;2.50;;
44816;SDS011;30529;53.570;9.964;2023-03-23T13:23:28;6.27;;;3.00;;
44816;SDS011;30529;53.570;9.964;2023-03-23T13:26:06;9.50;;;2.53;;
44816;SDS011;30529;53.570;9.964;2023-03-23T13:34:14;8.90;;;2.80;;
44816;SDS011;30529;53.570;9.964;2023-03-23T13:36:52;9.80;;;2.33;;
44816;SDS011;30529;53.570;9.964;2023-03-23T13:39:31;5.47;;;2.47;;
44816;SDS011;30529;53.570;9.964;2023-03-23T13:42:18;5.13;;;2.30;;
44816;SDS011;30529;53.570;9.964;2023-03-23T13:47:25;7.57;;;2.50;;
44816;SDS011;30529;53.570;9.964;2023-03-23T13:49:56;6.93;;;3.03;;
44816;SDS011;30529;53.570;9.964;2023-03-23T13:52:35;4.30;;;2.20;;
44816;SDS011;30529;53.570;9.964;2023-03-23T13:55:18;7.70;;;1.93;;
44816;SDS011;30529;53.570;9.964;2023-03-23T14:03:13;3.43;;;1.00;;
44816;SDS011;30529;53.570;9.964;2023-03-23T14:10:54;3.00;;;1.43;;
44816;SDS011;30529;53.570;9.964;2023-03-23T14:13:30;6.27;;;1.40;;
44816;SDS011;30529;53.570;9.964;2023-03-23T14:18:36;5.37;;;1.47;;
44816;SDS011;30529;53.570;9.964;2023-03-23T14:21:04;2.40;;;1.10;;
44816;SDS011;30529;53.570;9.964;2023-03-23T14:23:32;4.17;;;1.73;;
44816;SDS011;30529;53.570;9.964;2023-03-23T14:26:00;5.93;;;1.80;;
44816;SDS011;30529;53.570;9.964;2023-03-23T14:28:36;6.20;;;2.03;;
44816;SDS011;30529;53.570;9.964;2023-03-23T14:31:13;7.77;;;1.87;;
44816;SDS011;30529;53.570;9.964;2023-03-23T14:33:43;3.50;;;1.43;;
44816;SDS011;30529;53.570;9.964;2023-03-23T14:36:09;5.37;;;1.70;;
44816;SDS011;30529;53.570;9.964;2023-03-23T14:38:35;4.43;;;1.70;;
44816;SDS011;30529;53.570;9.964;2023-03-23T14:41:02;7.47;;;2.53;;
44816;SDS011;30529;53.570;9.964;2023-03-23T14:43:30;5.67;;;2.00;;
44816;SDS011;30529;53.570;9.964;2023-03-23T14:46:00;5.50;;;1.60;;
44816;SDS011;30529;53.570;9.964;2023-03-23T14:48:30;7.37;;;1.90;;
44816;SDS011;30529;53.570;9.964;2023-03-23T14:50:57;4.93;;;2.20;;
44816;SDS011;30529;53.570;9.964;2023-03-23T14:53:37;5.57;;;1.97;;
44816;SDS011;30529;53.570;9.964;2023-03-23T14:56:11;8.10;;;2.17;;
44816;SDS011;30529;53.570;9.964;2023-03-23T14:58:47;6.23;;;2.00;;
44816;SDS011;30529;53.570;9.964;2023-03-23T15:01:24;3.77;;;1.73;;
44816;SDS011;30529;53.570;9.964;2023-03-23T15:03:55;5.50;;;1.50;;
44816;SDS011;30529;53.570;9.964;2023-03-23T15:06:26;3.97;;;1.60;;
44816;SDS011;30529;53.570;9.964;2023-03-23T15:08:56;4.33;;;1.87;;
44816;SDS011;30529;53.570;9.964;2023-03-23T15:11:42;5.23;;;1.80;;
44816;SDS011;30529;53.570;9.964;2023-03-23T15:14:13;5.37;;;1.80;;
44816;SDS011;30529;53.570;9.964;2023-03-23T15:16:45;4.33;;;1.73;;
44816;SDS011;30529;53.570;9.964;2023-03-23T15:19:17;5.40;;;2.00;;
44816;SDS011;30529;53.570;9.964;2023-03-23T15:21:48;4.27;;;1.73;;
44816;SDS011;30529;53.570;9.964;2023-03-23T15:24:38;4.27;;;1.90;;
44816;SDS011;30529;53.570;9.964;2023-03-23T15:29:47;6.53;;;1.97;;
44816;SDS011;30529;53.570;9.964;2023-03-23T15:32:21;5.30;;;1.70;;
44816;SDS011;30529;53.570;9.964;2023-03-23T15:35:04;5.43;;;1.80;;
44816;SDS011;30529;53.570;9.964;2023-03-23T15:37:39;7.00;;;1.67;;
44816;SDS011;30529;53.570;9.964;2023-03-23T15:40:16;3.50;;;1.90;;
44816;SDS011;30529;53.570;9.964;2023-03-23T15:42:44;4.97;;;2.13;;
44816;SDS011;30529;53.570;9.964;2023-03-23T15:50:11;3.97;;;1.77;;
44816;SDS011;30529;53.570;9.964;2023-03-23T15:52:52;4.70;;;1.97;;
44816;SDS011;30529;53.570;9.964;2023-03-23T15:55:20;7.77;;;2.00;;
44816;SDS011;30529;53.570;9.964;2023-03-23T15:57:52;4.17;;;1.53;;
44816;SDS011;30529;53.570;9.964;2023-03-23T16:00:19;7.90;;;3.70;;
44816;SDS011;30529;53.570;9.964;2023-03-23T16:02:48;5.00;;;2.03;;
44816;SDS011;30529;53.570;9.964;2023-03-23T16:05:18;5.30;;;1.83;;
44816;SDS011;30529;53.570;9.964;2023-03-23T16:07:44;5.87;;;2.30;;
44816;SDS011;30529;53.570;9.964;2023-03-23T16:10:15;4.23;;;1.93;;
44816;SDS011;30529;53.570;9.964;2023-03-23T16:12:43;6.40;;;1.83;;
44816;SDS011;30529;53.570;9.964;2023-03-23T16:15:10;7.33;;;2.33;;
44816;SDS011;30529;53.570;9.964;2023-03-23T16:17:37;4.30;;;1.47;;
44816;SDS011;30529;53.570;9.964;2023-03-23T16:20:08;6.63;;;2.00;;
44816;SDS011;30529;53.570;9.964;2023-03-23T16:22:37;4.40;;;1.50;;
44816;SDS011;30529;53.570;9.964;2023-03-23T16:25:03;5.00;;;1.80;;
44816;SDS011;30529;53.570;9.964;2023-03-23T16:27:30;4.83;;;1.90;;
44816;SDS011;30529;53.570;9.964;2023-03-23T16:29:56;4.30;;;1.90;;
44816;SDS011;30529;53.570;9.964;2023-03-23T16:32:25;6.50;;;1.97;;
44816;SDS011;30529;53.570;9.964;2023-03-23T16:34:51;5.73;;;1.67;;
44816;SDS011;30529;53.570;9.964;2023-03-23T16:37:17;6.40;;;3.47;;
44816;SDS011;30529;53.570;9.964;2023-03-23T16:39:43;5.70;;;2.53;;
44816;SDS011;30529;53.570;9.964;2023-03-23T16:42:09;5.73;;;2.47;;
44816;SDS011;30529;53.570;9.964;2023-03-23T16:44:35;5.50;;;2.23;;
44816;SDS011;30529;53.570;9.964;2023-03-23T16:47:01;9.17;;;2.30;;
44816;SDS011;30529;53.570;9.964;2023-03-23T16:49:27;9.10;;;2.10;;
44816;SDS011;30529;53.570;9.964;2023-03-23T16:51:53;7.20;;;1.90;;
44816;SDS011;30529;53.570;9.964;2023-03-23T16:54:19;8.67;;;2.53;;
44816;SDS011;30529;53.570;9.964;2023-03-23T16:56:46;3.63;;;1.90;;
44816;SDS011;30529;53.570;9.964;2023-03-23T16:59:13;5.27;;;2.10;;